createdAt,value
2022-10-30T00:00:00.000Z,5.59
2022-10-30T00:15:00.000Z,5.85
2022-10-30T00:30:00.000Z,5.38
2022-10-30T00:45:00.000Z,5.41
2022-10-30T01:00:00.000Z,5.55
2022-10-30T01:15:00.000Z,5.95
2022-10-30T01:30:00.000Z,5.56
2022-10-30T01:45:00.000Z,5.76
2022-10-30T02:00:00.000Z,5.72
2022-10-30T02:15:00.000Z,5.51
2022-10-30T02:30:00.000Z,5.13
2022-10-30T02:45:00.000Z,5.46
2022-10-30T03:00:00.000Z,5.42
2022-10-30T03:15:00.000Z,5.52
2022-10-30T03:30:00.000Z,5.05
2022-10-30T03:45:00.000Z,5.44
2022-10-30T04:00:00.000Z,5.52
2022-10-30T04:15:00.000Z,5.56
2022-10-30T04:30:00.000Z,5.4
2022-10-30T04:45:00.000Z,5.49
2022-10-30T05:00:00.000Z,5.46
2022-10-30T05:15:00.000Z,5.6
2022-10-30T05:30:00.000Z,5.36
2022-10-30T05:45:00.000Z,5.33
2022-10-30T06:00:00.000Z,5.15
2022-10-30T06:15:00.000Z,5.46
2022-10-30T06:30:00.000Z,5.62
2022-10-30T06:45:00.000Z,5.47
2022-10-30T07:00:00.000Z,4.99
2022-10-30T07:15:00.000Z,5.32
2022-10-30T07:30:00.000Z,5.32
2022-10-30T07:45:00.000Z,5.33
2022-10-30T08:00:00.000Z,5.36
2022-10-30T08:15:00.000Z,5.48
2022-10-30T08:30:00.000Z,5.38
2022-10-30T08:45:00.000Z,5.46
2022-10-30T09:00:00.000Z,5.12
2022-10-30T09:15:00.000Z,5.22
2022-10-30T09:30:00.000Z,5.72
2022-10-30T09:45:00.000Z,5.35
2022-10-30T10:00:00.000Z,5.42
2022-10-30T10:15:00.000Z,5.78
2022-10-30T10:30:00.000Z,5.94
2022-10-30T10:45:00.000Z,6.69
2022-10-30T11:00:00.000Z,6.86
2022-10-30T11:15:00.000Z,6.12
2022-10-30T11:30:00.000Z,7.24
2022-10-30T11:45:00.000Z,14.64
2022-10-30T12:00:00.000Z,8.5
2022-10-30T12:15:00.000Z,7.11
2022-10-30T12:30:00.000Z,6.95
2022-10-30T12:45:00.000Z,8.89
2022-10-30T13:00:00.000Z,6.62
2022-10-30T13:15:00.000Z,6.68
2022-10-30T13:30:00.000Z,5.89
2022-10-30T13:45:00.000Z,6.16
2022-10-30T14:00:00.000Z,6.31
2022-10-30T14:15:00.000Z,6.06
2022-10-30T14:30:00.000Z,6.64
2022-10-30T14:45:00.000Z,6.56
2022-10-30T15:00:00.000Z,6.11
2022-10-30T15:15:00.000Z,6.47
2022-10-30T15:30:00.000Z,7.84
2022-10-30T15:45:00.000Z,11.25
2022-10-30T16:00:00.000Z,9.38
2022-10-30T16:15:00.000Z,9.67
2022-10-30T16:30:00.000Z,11.94
2022-10-30T16:45:00.000Z,12.06
2022-10-30T17:00:00.000Z,13.62
2022-10-30T17:15:00.000Z,45.15
2022-10-30T17:30:00.000Z,12.69
2022-10-30T17:45:00.000Z,18.93
2022-10-30T18:00:00.000Z,25.05
2022-10-30T18:15:00.000Z,20.91
2022-10-30T18:30:00.000Z,22.45
2022-10-30T18:45:00.000Z,26.48
2022-10-30T19:00:00.000Z,24.44
2022-10-30T19:15:00.000Z,18.27
2022-10-30T19:30:00.000Z,20.75
2022-10-30T19:45:00.000Z,17.74
2022-10-30T20:00:00.000Z,16.31
2022-10-30T20:15:00.000Z,16.86
2022-10-30T20:30:00.000Z,15.89
2022-10-30T20:45:00.000Z,15.6
2022-10-30T21:00:00.000Z,15.65
2022-10-30T21:15:00.000Z,14.73
2022-10-30T21:30:00.000Z,15.02
2022-10-30T21:45:00.000Z,16.36
2022-10-30T22:00:00.000Z,17.99
2022-10-30T22:15:00.000Z,16.85
2022-10-30T22:30:00.000Z,17.04
2022-10-30T22:45:00.000Z,15.69
2022-10-30T23:00:00.000Z,16.29
2022-10-30T23:15:00.000Z,17.11
2022-10-30T23:30:00.000Z,17.52
2022-10-30T23:45:00.000Z,14.15
